This is the latest recevied weather packets stored in our database for station/object 1NW106. If no packets are shown the sender has not sent any weather packets the latest 10 day(s).
| Time | Temp. | Humidity | Pressure | Rain* | Wind** | Luminosity | Snow |
|---|---|---|---|---|---|---|---|
| 1787820569 | 29.44° C | 79% | 1005.4 hPa | 14.73 mm | - | - | - |
| 1787819969 | 30° C | 78% | 1005.4 hPa | 14.73 mm | - | - | - |
| 1787819369 | 29.44° C | 79% | 1005.5 hPa | 14.73 mm | - | - | - |
| 1787818769 | 28.89° C | 79% | 1005.7 hPa | 14.73 mm | - | - | - |
| 1787818169 | 29.44° C | 78% | 1005.8 hPa | 14.73 mm | - | - | - |
| 1787817569 | 29.44° C | 79% | 1005.8 hPa | 14.73 mm | - | - | - |
| 1787816969 | 29.44° C | 79% | 1005.9 hPa | 14.73 mm | - | - | - |
| 1787816369 | 30.56° C | 74% | 1006.3 hPa | 14.73 mm | - | - | - |
| 1787815769 | 31.11° C | 74% | 1006.5 hPa | 14.73 mm | - | - | - |
| 1787815169 | 30.56° C | 74% | 1006.7 hPa | 14.73 mm | - | - | - |
| 1787814569 | 30° C | 77% | 1006.7 hPa | 14.73 mm | - | - | - |
| 1787813969 | 30° C | 78% | 1006.8 hPa | 14.73 mm | - | - | - |
| 1787813369 | 30° C | 78% | 1007 hPa | 14.73 mm | - | - | - |
| 1787812770 | 29.44° C | 80% | 1007.1 hPa | 14.73 mm | - | - | - |
| 1787812169 | 30° C | 79% | 1007.2 hPa | 14.73 mm | - | - | - |
| 1787811570 | 29.44° C | 80% | 1007.3 hPa | 14.73 mm | - | - | - |
| 1787810969 | 28.89° C | 79% | 1007.7 hPa | 14.73 mm | - | - | - |
| 1787810369 | 28.89° C | 78% | 1008 hPa | 14.73 mm | - | - | - |
| 1787809769 | 28.89° C | 78% | 1008.1 hPa | 14.73 mm | - | - | - |
| 1787809169 | 28.89° C | 80% | 1008.3 hPa | 14.73 mm | - | - | - |
| 1787808569 | 28.89° C | 79% | 1008.6 hPa | 14.73 mm | - | - | - |
| 1787807969 | 28.89° C | 79% | 1008.6 hPa | 14.73 mm | - | - | - |
| 1787807369 | 28.89° C | 79% | 1008.9 hPa | 14.73 mm | - | - | - |
| 1787806788 | 28.89° C | 80% | 1008.9 hPa | 14.73 mm | - | - | - |
| 1787806169 | 28.89° C | 80% | 1009.1 hPa | 14.73 mm | - | - | - |
* Rain latest hour (hover to see other rain measurements)
** Current wind speed in m/s (hover to see current wind gust speed)